Time;durP1;ratioP1;P1;durP2;ratioP2;P2;SDS_P1;SDS_P2;PMS_P1;PMS_P2;Temp;Humidity;BMP_temperature;BMP_pressure;BME280_temperature;BME280_humidity;BME280_pressure;Samples;Min_cycle;Max_cycle;Signal;HPM_P1;HPM_P2
2024/03/28 00:02:37;;;;;;;13.40;6.00;;;;;;;10.12;64.99;97505.27;217698;1258;141081;-71
2024/03/28 00:07:40;;;;;;;7.90;4.90;;;;;;;10.10;65.12;97502.79;218647;1257;140373;-73
2024/03/28 00:12:44;;;;;;;7.10;4.90;;;;;;;10.07;65.07;97503.48;218510;1257;140483;-71
2024/03/28 00:17:48;;;;;;;10.90;5.10;;;;;;;10.05;65.27;97499.61;218485;1257;140544;-73
2024/03/28 00:22:51;;;;;;;6.10;3.90;;;;;;;10.03;65.44;97489.59;217606;1257;140654;-71
2024/03/28 00:27:56;;;;;;;6.00;3.90;;;;;;;9.96;65.45;97484.06;217740;1262;140963;-72
2024/03/28 00:32:59;;;;;;;6.40;4.30;;;;;;;9.93;65.53;97481.91;217835;1256;140349;-71
2024/03/28 00:38:02;;;;;;;8.60;4.80;;;;;;;9.90;65.60;97486.21;217525;1260;140442;-72
2024/03/28 00:43:05;;;;;;;9.50;4.80;;;;;;;9.87;65.81;97479.76;217489;1260;140529;-73
2024/03/28 00:48:08;;;;;;;4.10;3.30;;;;;;;9.84;66.00;97469.58;217586;1262;139749;-70
2024/03/28 00:53:12;;;;;;;6.30;4.70;;;;;;;9.80;66.00;97461.16;217684;1257;154409;-71
2024/03/28 00:58:16;;;;;;;8.00;4.10;;;;;;;9.75;66.18;97460.13;217911;1262;139563;-69
2024/03/28 01:03:18;;;;;;;7.40;4.20;;;;;;;9.73;66.54;97451.90;217804;1257;139519;-72
2024/03/28 01:08:20;;;;;;;11.40;4.80;;;;;;;9.69;66.50;97446.58;217416;1257;140025;-72
2024/03/28 01:13:23;;;;;;;5.30;3.80;;;;;;;9.66;66.69;97435.38;217972;1257;139684;-69
2024/03/28 01:18:26;;;;;;;6.00;3.60;;;;;;;9.65;66.90;97424.38;217766;1257;139658;-72
2024/03/28 01:23:30;;;;;;;7.80;3.90;;;;;;;9.68;67.30;97419.17;217666;1262;140995;-72
2024/03/28 01:28:34;;;;;;;4.70;3.70;;;;;;;9.73;67.35;97412.04;217572;1257;140531;-71
2024/03/28 01:33:37;;;;;;;4.40;3.80;;;;;;;9.76;67.51;97405.77;217503;1257;141223;-71
2024/03/28 01:38:39;;;;;;;5.20;4.30;;;;;;;9.80;67.63;97398.73;217465;1257;139716;-72
2024/03/28 01:43:42;;;;;;;8.40;3.60;;;;;;;9.86;67.83;97400.11;217618;1257;139798;-73
2024/03/28 01:48:46;;;;;;;6.70;3.60;;;;;;;9.95;68.23;97393.66;217649;1260;139498;-72
2024/03/28 01:53:49;;;;;;;6.00;4.30;;;;;;;10.00;68.17;97387.30;218619;1262;140296;-72
2024/03/28 01:59:05;;;;;;;7.00;4.80;;;;;;;10.05;68.28;97383.83;217627;1260;139912;-72
2024/03/28 02:04:07;;;;;;;8.40;3.30;;;;;;;10.09;68.41;97383.96;217395;1258;139824;-72
2024/03/28 02:09:11;;;;;;;8.10;4.50;;;;;;;10.11;68.38;97375.90;218176;1260;141047;-73
2024/03/28 02:14:27;;;;;;;4.50;3.90;;;;;;;10.13;68.37;97373.46;217988;1257;140150;-72
2024/03/28 02:19:31;;;;;;;4.70;2.90;;;;;;;10.12;68.50;97370.39;217612;1258;140135;-71
2024/03/28 02:24:36;;;;;;;8.90;3.40;;;;;;;10.13;68.60;97372.09;217931;1258;140799;-71
2024/03/28 02:29:39;;;;;;;5.90;4.30;;;;;;;10.14;68.65;97372.02;218452;1257;140622;-72
2024/03/28 02:34:43;;;;;;;6.00;3.10;;;;;;;10.17;68.89;97365.86;217463;1262;141725;-73
2024/03/28 02:39:47;;;;;;;6.20;4.40;;;;;;;10.21;68.92;97362.48;218036;1262;140409;-72
2024/03/28 02:44:50;;;;;;;6.40;3.40;;;;;;;10.25;69.01;97365.92;217540;1262;140990;-71
2024/03/28 02:49:53;;;;;;;6.80;3.70;;;;;;;10.28;69.00;97363.16;218047;1257;139841;-70
2024/03/28 02:54:56;;;;;;;6.50;2.90;;;;;;;10.32;69.14;97352.89;218099;1257;140254;-71
2024/03/28 03:00:00;;;;;;;7.20;3.20;;;;;;;10.37;69.14;97347.48;217536;1260;140078;-74
2024/03/28 03:05:03;;;;;;;6.10;3.60;;;;;;;10.42;68.96;97342.05;217504;1260;140369;-73
2024/03/28 03:10:07;;;;;;;7.70;3.70;;;;;;;10.46;68.97;97339.85;217571;1257;139667;-71
2024/03/28 03:15:11;;;;;;;6.20;3.10;;;;;;;10.49;69.17;97334.16;217278;1262;139757;-72
2024/03/28 03:20:14;;;;;;;4.90;3.80;;;;;;;10.53;68.96;97334.46;217371;1260;139807;-71
2024/03/28 03:25:28;;;;;;;5.90;3.30;;;;;;;10.61;69.08;97334.14;217457;1260;140812;-72
2024/03/28 03:35:52;;;;;;;5.90;2.80;;;;;;;10.71;69.10;97322.48;217598;1257;142245;-72
2024/03/28 03:40:58;;;;;;;8.80;3.20;;;;;;;10.74;69.11;97309.48;217352;1261;140464;-74
2024/03/28 03:46:01;;;;;;;4.00;3.30;;;;;;;10.77;68.91;97309.79;217968;1262;141907;-72
2024/03/28 03:51:04;;;;;;;8.00;3.40;;;;;;;10.79;68.97;97302.83;217833;1260;140854;-72
2024/03/28 03:56:07;;;;;;;6.60;3.30;;;;;;;10.80;69.11;97293.16;217356;1260;140674;-72
2024/03/28 04:01:11;;;;;;;6.90;4.00;;;;;;;10.81;68.96;97287.19;217478;1257;140655;-73
2024/03/28 04:06:15;;;;;;;6.30;3.50;;;;;;;10.80;69.05;97289.27;217638;1257;140589;-72
2024/03/28 04:11:18;;;;;;;9.30;4.00;;;;;;;10.80;69.14;97288.11;218118;1260;140407;-71
2024/03/28 04:16:20;;;;;;;15.50;3.90;;;;;;;10.82;69.14;97294.68;218521;1260;140816;-73
2024/03/28 04:21:23;;;;;;;7.50;3.90;;;;;;;10.85;69.27;97300.71;218598;1260;140824;-72
2024/03/28 04:26:26;;;;;;;9.20;4.30;;;;;;;10.87;69.39;97294.76;217997;1257;141270;-72
2024/03/28 04:31:29;;;;;;;10.00;3.70;;;;;;;10.91;69.46;97286.05;217390;1260;140375;-72
2024/03/28 04:36:32;;;;;;;10.60;4.50;;;;;;;10.95;69.47;97278.77;217460;1257;139405;-72
2024/03/28 04:41:36;;;;;;;13.40;7.30;;;;;;;10.96;69.65;97269.10;217458;1260;140028;-72
2024/03/28 04:46:38;;;;;;;7.00;3.30;;;;;;;10.99;69.88;97261.10;218739;1260;140201;-72
2024/03/28 04:51:42;;;;;;;7.40;4.40;;;;;;;11.03;69.90;97261.42;217445;1260;140285;-73
2024/03/28 04:56:45;;;;;;;8.20;3.90;;;;;;;11.07;70.02;97254.79;217599;1257;140150;-74
2024/03/28 05:01:49;;;;;;;9.90;4.50;;;;;;;11.12;69.94;97254.54;218597;1257;139556;-72
2024/03/28 05:06:53;;;;;;;11.50;5.10;;;;;;;11.19;69.94;97259.79;217338;1257;139925;-72
2024/03/28 05:11:57;;;;;;;10.70;4.60;;;;;;;11.29;70.02;97261.40;217431;1257;140142;-72
2024/03/28 05:17:00;;;;;;;13.40;4.30;;;;;;;11.37;70.07;97254.09;217845;1257;140204;-72
2024/03/28 05:22:04;;;;;;;13.50;7.20;;;;;;;11.48;70.24;97252.22;217491;1260;140346;-72
2024/03/28 05:27:07;;;;;;;9.10;5.00;;;;;;;11.60;70.09;97253.67;218227;1257;140670;-71
2024/03/28 05:32:10;;;;;;;13.70;6.60;;;;;;;11.72;70.01;97246.42;217364;1260;139743;-73
2024/03/28 05:37:13;;;;;;;14.90;5.10;;;;;;;11.85;69.92;97236.57;218018;1257;140735;-73
2024/03/28 05:42:16;;;;;;;12.90;4.40;;;;;;;11.97;70.02;97242.41;218751;1257;140311;-73
2024/03/28 05:47:19;;;;;;;21.20;5.50;;;;;;;12.13;69.77;97236.30;218723;1258;140487;-71
2024/03/28 05:52:23;;;;;;;22.80;4.70;;;;;;;12.34;69.71;97231.77;217473;1257;140238;-72
2024/03/28 05:57:26;;;;;;;16.80;6.40;;;;;;;12.47;69.62;97230.58;218290;1258;141547;-72
2024/03/28 06:02:28;;;;;;;17.80;6.10;;;;;;;12.51;69.35;97226.80;217648;1257;140366;-73
2024/03/28 06:07:31;;;;;;;20.50;4.80;;;;;;;12.55;69.22;97220.09;217517;1260;142752;-72
2024/03/28 06:12:35;;;;;;;22.30;6.40;;;;;;;12.70;69.21;97233.62;218010;1257;139862;-72
2024/03/28 06:17:39;;;;;;;15.30;6.60;;;;;;;12.83;69.13;97241.55;217798;1257;141327;-72
2024/03/28 06:22:42;;;;;;;14.40;5.90;;;;;;;12.89;68.94;97238.34;218398;1260;140954;-74
2024/03/28 06:27:45;;;;;;;12.40;5.40;;;;;;;13.01;68.81;97241.42;219057;1257;140879;-73
2024/03/28 06:32:48;;;;;;;25.90;7.60;;;;;;;13.15;68.59;97242.76;217248;1260;139629;-73
2024/03/28 06:37:52;;;;;;;16.90;6.10;;;;;;;13.25;68.45;97243.33;217317;1257;140811;-73
2024/03/28 06:42:55;;;;;;;24.30;8.20;;;;;;;13.26;68.24;97250.25;217365;1260;140957;-74
2024/03/28 06:47:58;;;;;;;36.20;7.30;;;;;;;13.22;68.22;97263.33;217319;1258;140876;-73
2024/03/28 06:53:01;;;;;;;17.10;6.40;;;;;;;13.22;68.27;97271.08;217052;1260;139932;-73
2024/03/28 06:58:05;;;;;;;24.60;10.00;;;;;;;13.27;68.18;97280.79;217180;1257;140323;-74
2024/03/28 07:03:09;;;;;;;20.20;7.30;;;;;;;13.31;68.05;97285.42;217749;1256;141102;-73
2024/03/28 07:08:11;;;;;;;19.80;6.80;;;;;;;13.34;68.24;97296.10;217843;1260;140147;-73
2024/03/28 07:13:14;;;;;;;27.20;8.20;;;;;;;13.49;68.07;97297.95;217179;1257;140858;-72
2024/03/28 07:18:16;;;;;;;28.10;6.60;;;;;;;13.60;68.01;97301.12;217235;1260;140050;-73
2024/03/28 07:23:19;;;;;;;20.20;6.40;;;;;;;13.68;68.00;97302.23;217622;1257;140125;-73
2024/03/28 07:28:22;;;;;;;40.60;7.90;;;;;;;13.62;68.31;97302.23;217130;1257;140789;-71
2024/03/28 07:33:25;;;;;;;21.10;6.90;;;;;;;13.59;68.93;97292.58;217218;1257;141542;-73
2024/03/28 07:38:27;;;;;;;19.80;7.10;;;;;;;13.71;69.58;97286.23;217379;1257;139961;-72
2024/03/28 07:43:30;;;;;;;20.20;7.80;;;;;;;13.92;70.13;97282.86;217158;1257;140219;-72
2024/03/28 07:48:34;;;;;;;28.20;10.50;;;;;;;14.31;70.75;97278.30;217240;1260;140567;-73
2024/03/28 07:53:36;;;;;;;18.30;7.00;;;;;;;14.58;70.16;97272.19;219902;1256;141081;-74
2024/03/28 07:58:39;;;;;;;24.00;9.00;;;;;;;14.40;69.71;97276.01;217313;1257;140729;-73
2024/03/28 08:03:42;;;;;;;28.50;8.60;;;;;;;14.21;69.96;97274.42;217248;1260;139954;-73
2024/03/28 08:08:45;;;;;;;20.40;7.30;;;;;;;14.02;70.41;97274.14;217218;1258;141925;-72
2024/03/28 08:13:49;;;;;;;16.80;5.60;;;;;;;13.84;71.08;97273.11;217323;1256;140971;-72
2024/03/28 08:18:51;;;;;;;35.90;9.30;;;;;;;13.69;71.56;97269.16;217489;1258;140315;-73
2024/03/28 08:23:54;;;;;;;37.20;8.20;;;;;;;13.56;72.42;97265.66;217510;1256;140976;-72
2024/03/28 08:28:58;;;;;;;24.90;8.30;;;;;;;13.41;72.85;97258.28;217314;1260;140368;-73
2024/03/28 08:34:02;;;;;;;23.00;8.70;;;;;;;13.33;73.52;97251.08;217571;1257;140187;-72
2024/03/28 08:39:05;;;;;;;17.70;7.10;;;;;;;13.30;74.09;97254.64;217622;1257;141948;-71
2024/03/28 08:44:08;;;;;;;17.70;8.00;;;;;;;13.38;74.71;97245.09;217887;1257;140326;-74
2024/03/28 08:49:11;;;;;;;28.00;7.90;;;;;;;13.63;75.19;97249.69;217464;1258;150979;-71
2024/03/28 08:54:16;;;;;;;24.00;8.60;;;;;;;13.85;75.25;97243.26;217355;1256;140161;-72
2024/03/28 08:59:20;;;;;;;26.00;10.60;;;;;;;13.91;75.12;97231.09;217704;1258;139937;-73
2024/03/28 09:04:22;;;;;;;35.00;8.80;;;;;;;13.94;75.24;97231.94;217286;1260;141009;-72
2024/03/28 09:09:25;;;;;;;24.90;7.30;;;;;;;14.00;75.36;97233.71;217429;1260;141521;-72
2024/03/28 09:14:27;;;;;;;26.40;8.30;;;;;;;14.10;75.35;97220.98;217241;1257;141206;-73
2024/03/28 09:19:33;;;;;;;35.80;9.30;;;;;;;14.23;75.52;97232.25;217443;1257;139960;-73
2024/03/28 09:24:36;;;;;;;21.80;7.50;;;;;;;14.36;75.05;97239.23;217448;1257;140456;-73
2024/03/28 09:29:39;;;;;;;20.20;8.00;;;;;;;14.50;74.86;97245.12;217561;1260;140242;-73
2024/03/28 09:34:41;;;;;;;24.50;8.50;;;;;;;14.65;74.85;97241.90;217749;1257;139891;-73
2024/03/28 09:39:48;;;;;;;28.20;10.10;;;;;;;14.89;74.46;97233.08;217967;1256;139759;-73
2024/03/28 09:44:52;;;;;;;;;;;;;;;14.98;73.87;97238.45;219831;1256;142238;-73
2024/03/28 09:49:57;;;;;;;22.80;7.10;;;;;;;15.05;73.55;97247.08;220652;1256;127158;-73
2024/03/28 09:55:00;;;;;;;19.60;7.80;;;;;;;15.21;73.28;97247.55;220150;1256;141719;-74
2024/03/28 10:00:05;;;;;;;24.00;6.90;;;;;;;15.29;72.65;97252.60;217511;1257;140559;-74
2024/03/28 10:05:10;;;;;;;20.40;7.00;;;;;;;15.37;72.64;97266.28;217341;1259;140184;-73
2024/03/28 10:10:14;;;;;;;39.50;7.30;;;;;;;15.30;72.10;97283.55;217337;1259;140393;-73
2024/03/28 10:15:19;;;;;;;26.60;8.30;;;;;;;15.16;72.05;97289.40;218189;1257;141566;-73
2024/03/28 10:20:24;;;;;;;17.10;6.90;;;;;;;15.11;72.16;97301.31;217415;1257;139877;-74
2024/03/28 10:25:26;;;;;;;18.40;6.60;;;;;;;15.36;72.36;97296.23;217930;1257;140232;-73
2024/03/28 10:30:29;;;;;;;23.70;7.40;;;;;;;15.65;72.18;97305.55;217844;1260;140331;-73
2024/03/28 10:35:35;;;;;;;24.30;7.30;;;;;;;15.99;72.11;97300.46;217523;1259;140347;-73
2024/03/28 10:40:38;;;;;;;16.30;6.30;;;;;;;16.12;71.36;97307.00;217462;1257;140867;-73
2024/03/28 10:45:42;;;;;;;32.10;7.90;;;;;;;15.80;70.50;97304.44;217538;1256;672791;-74
2024/03/28 10:51:13;;;;;;;16.70;5.00;;;;;;;15.57;70.96;97318.84;217267;1256;141106;-73
2024/03/28 10:56:17;;;;;;;14.00;5.00;;;;;;;15.78;71.43;97310.33;217711;1258;140244;-73
2024/03/28 11:01:22;;;;;;;10.10;3.90;;;;;;;16.74;71.77;97292.84;217343;1257;140494;-74
2024/03/28 11:06:25;;;;;;;14.60;5.00;;;;;;;17.40;69.63;97292.50;218146;1259;141312;-73
2024/03/28 11:11:30;;;;;;;11.60;4.20;;;;;;;17.32;68.07;97292.96;217520;1256;141265;-72
2024/03/28 11:16:34;;;;;;;13.70;4.30;;;;;;;17.39;67.58;97290.40;217322;1256;140750;-74
2024/03/28 11:21:37;;;;;;;10.80;3.30;;;;;;;17.53;66.48;97288.83;219061;1259;140061;-73
2024/03/28 11:26:40;;;;;;;8.00;4.80;;;;;;;17.31;65.67;97294.37;217637;1257;139884;-73
2024/03/28 11:31:54;;;;;;;6.60;3.50;;;;;;;17.00;65.57;97296.20;218440;1256;139683;-74
2024/03/28 11:36:58;;;;;;;9.10;3.60;;;;;;;16.64;65.38;97295.27;217340;1257;139791;-73
2024/03/28 11:42:01;;;;;;;7.20;2.80;;;;;;;16.56;66.12;97297.58;218723;1259;141577;-72
2024/03/28 11:47:08;;;;;;;2.10;1.90;;;;;;;16.50;65.72;97318.40;217495;1260;139722;-74
2024/03/28 11:52:11;;;;;;;2.10;1.50;;;;;;;16.30;64.63;97324.13;218027;1260;141843;-73
2024/03/28 11:57:19;;;;;;;1.80;1.60;;;;;;;16.18;64.74;97324.02;218358;1256;139981;-73
2024/03/28 12:02:22;;;;;;;2.80;1.70;;;;;;;16.25;64.36;97327.80;217738;1256;139555;-74
2024/03/28 12:07:26;;;;;;;1.00;0.70;;;;;;;16.22;63.96;97331.85;217743;1257;141128;-73
2024/03/28 12:12:30;;;;;;;4.80;1.00;;;;;;;16.19;63.65;97356.55;217513;1260;222825;-72
2024/03/28 12:17:35;;;;;;;2.10;1.00;;;;;;;16.30;63.80;97363.00;217602;1259;139410;-73
2024/03/28 12:22:38;;;;;;;3.10;1.20;;;;;;;16.35;63.69;97374.56;217436;1260;139840;-73
2024/03/28 12:27:42;;;;;;;5.60;1.40;;;;;;;16.62;63.84;97377.85;217364;1257;139689;-74
2024/03/28 12:32:45;;;;;;;1.60;1.00;;;;;;;16.87;63.64;97389.45;217516;1261;140331;-73
2024/03/28 12:37:47;;;;;;;1.20;1.10;;;;;;;16.83;63.14;97403.77;217731;1257;140071;-74
2024/03/28 12:42:52;;;;;;;0.90;0.90;;;;;;;16.56;62.88;97423.27;217405;1257;140103;-73
2024/03/28 12:47:55;;;;;;;2.10;0.90;;;;;;;16.17;62.23;97434.16;217415;1261;139736;-74
2024/03/28 12:52:58;;;;;;;1.10;1.00;;;;;;;15.96;62.75;97432.92;217184;1256;139516;-74
2024/03/28 12:58:01;;;;;;;0.90;0.90;;;;;;;16.06;63.12;97435.96;217551;1258;140018;-73
2024/03/28 13:03:04;;;;;;;2.80;1.00;;;;;;;16.05;63.06;97452.60;217288;1257;139193;-74
2024/03/28 13:08:07;;;;;;;1.70;1.60;;;;;;;15.80;63.03;97463.90;217248;1257;140244;-71
2024/03/28 13:13:10;;;;;;;1.60;1.10;;;;;;;15.38;63.07;97471.49;217183;1257;139523;-73
2024/03/28 13:18:14;;;;;;;1.30;1.20;;;;;;;15.15;63.32;97482.01;218283;1259;139371;-74
2024/03/28 13:23:18;;;;;;;0.60;0.60;;;;;;;15.13;63.73;97498.36;217568;1261;139615;-73
2024/03/28 13:28:20;;;;;;;1.30;0.80;;;;;;;15.18;63.53;97504.61;217179;1257;139870;-73
2024/03/28 13:33:23;;;;;;;1.30;1.30;;;;;;;15.12;63.23;97509.52;220080;1256;140147;-74
2024/03/28 13:38:25;;;;;;;1.60;1.00;;;;;;;15.12;63.15;97517.24;220271;1256;140633;-73
2024/03/28 13:43:28;;;;;;;1.00;1.00;;;;;;;15.15;63.20;97530.69;219121;1258;140255;-71
2024/03/28 13:48:32;;;;;;;1.20;1.20;;;;;;;15.03;63.15;97535.08;217413;1257;140560;-72
2024/03/28 13:53:35;;;;;;;0.90;0.90;;;;;;;14.94;63.23;97544.05;217545;1257;139360;-73
2024/03/28 13:58:39;;;;;;;3.70;1.00;;;;;;;14.74;63.01;97566.67;218383;1257;139405;-73
2024/03/28 14:03:41;;;;;;;1.30;1.10;;;;;;;14.41;63.10;97567.78;217312;1257;139544;-72
2024/03/28 14:08:44;;;;;;;1.20;1.10;;;;;;;14.20;63.59;97575.23;218281;1260;139411;-73
2024/03/28 14:13:46;;;;;;;2.30;1.30;;;;;;;13.99;63.60;97583.10;217802;1257;140776;-72
2024/03/28 14:18:49;;;;;;;2.10;1.40;;;;;;;13.76;63.77;97589.27;217525;1257;141660;-72
2024/03/28 14:23:53;;;;;;;1.40;1.30;;;;;;;13.55;63.78;97601.52;217576;1259;138903;-73
2024/03/28 14:28:56;;;;;;;5.50;1.80;;;;;;;13.36;64.15;97598.64;218089;1256;139035;-73
2024/03/28 14:34:00;;;;;;;1.70;1.60;;;;;;;13.27;64.44;97597.88;218070;1256;139616;-72
2024/03/28 14:39:06;;;;;;;1.60;1.50;;;;;;;13.28;64.83;97591.80;217984;1256;140432;-72
2024/03/28 14:44:11;;;;;;;1.70;1.60;;;;;;;13.33;64.99;97587.21;217677;1259;141043;-72
2024/03/28 14:49:14;;;;;;;1.40;1.30;;;;;;;13.34;64.98;97598.09;217902;1257;140722;-71
2024/03/28 14:54:19;;;;;;;2.90;1.40;;;;;;;13.30;64.70;97604.38;217963;1256;139791;-73
2024/03/28 14:59:27;;;;;;;1.80;1.70;;;;;;;13.22;64.83;97624.42;218173;1256;140931;-69
2024/03/28 15:04:29;;;;;;;2.00;1.90;;;;;;;13.16;65.03;97643.70;217661;1257;141402;-70
2024/03/28 15:09:32;;;;;;;9.90;1.90;;;;;;;13.14;64.86;97647.12;219371;1257;142026;-71
2024/03/28 15:14:38;;;;;;;1.70;1.30;;;;;;;13.10;64.88;97644.27;218835;1257;140288;-75
2024/03/28 15:19:49;;;;;;;3.40;2.30;;;;;;;13.12;64.97;97634.32;218929;1259;140836;-73
2024/03/28 15:24:56;;;;;;;1.60;1.30;;;;;;;13.17;64.94;97632.66;217773;1260;140346;-73
2024/03/28 15:29:59;;;;;;;1.60;1.50;;;;;;;13.13;64.93;97630.29;218481;1261;144917;-74
2024/03/28 15:35:05;;;;;;;2.30;1.60;;;;;;;13.11;65.11;97631.09;217462;1260;141362;-75
2024/03/28 15:40:08;;;;;;;2.30;1.30;;;;;;;13.12;65.03;97628.71;217776;1261;140809;-75
2024/03/28 15:45:19;;;;;;;6.20;1.50;;;;;;;13.10;65.04;97632.06;217585;1259;139698;-73
2024/03/28 15:50:22;;;;;;;3.00;2.00;;;;;;;13.10;65.33;97633.35;219355;1257;139890;-73
2024/03/28 15:55:44;;;;;;;2.30;2.20;;;;;;;13.08;65.26;97633.71;217405;1256;141504;-73
2024/03/28 16:00:49;;;;;;;1.80;1.70;;;;;;;13.09;65.40;97630.75;217714;1257;140798;-77
2024/03/28 16:05:52;;;;;;;1.70;1.50;;;;;;;13.06;65.20;97639.70;217344;1257;141242;-76
2024/03/28 16:10:54;;;;;;;1.50;1.40;;;;;;;13.05;65.19;97648.70;217635;1257;140504;-75
2024/03/28 16:15:58;;;;;;;2.60;2.30;;;;;;;13.09;65.43;97663.70;217434;1259;140905;-73
2024/03/28 16:21:01;;;;;;;1.30;1.20;;;;;;;13.12;65.37;97670.23;218483;1257;139639;-73
2024/03/28 16:26:04;;;;;;;2.80;1.80;;;;;;;13.13;65.19;97670.35;217229;1259;140047;-75
2024/03/28 16:31:06;;;;;;;1.60;1.50;;;;;;;13.09;65.00;97673.12;217478;1257;140801;-75
2024/03/28 16:36:09;;;;;;;2.10;1.40;;;;;;;13.01;64.78;97679.17;217619;1257;139919;-73
2024/03/28 16:41:12;;;;;;;1.60;1.40;;;;;;;12.85;64.82;97687.52;217319;1256;140257;-73
2024/03/28 16:46:15;;;;;;;2.50;1.50;;;;;;;12.65;64.44;97694.71;217546;1255;140088;-72
2024/03/28 16:51:19;;;;;;;1.60;1.20;;;;;;;12.48;64.39;97694.73;217380;1257;139980;-72
2024/03/28 16:56:22;;;;;;;1.50;1.10;;;;;;;12.31;64.15;97701.23;217220;1257;140624;-73
2024/03/28 17:01:25;;;;;;;1.20;1.10;;;;;;;12.13;63.94;97712.37;218532;1257;140754;-72
2024/03/28 17:06:28;;;;;;;1.30;1.20;;;;;;;12.02;63.81;97719.59;218548;1259;141207;-72
2024/03/28 17:11:31;;;;;;;1.60;1.00;;;;;;;11.92;63.47;97728.05;220259;1257;140257;-72
2024/03/28 17:16:33;;;;;;;2.00;1.50;;;;;;;11.81;63.36;97740.13;217568;1256;140525;-71
2024/03/28 17:21:36;;;;;;;3.70;1.50;;;;;;;11.68;63.13;97742.44;217364;1259;139781;-72
2024/03/28 17:26:39;;;;;;;3.30;1.20;;;;;;;11.50;62.99;97742.86;218380;1259;138891;-74
2024/03/28 17:31:41;;;;;;;1.60;1.20;;;;;;;11.31;62.86;97751.39;217256;1260;140308;-74
2024/03/28 17:36:46;;;;;;;1.10;1.00;;;;;;;11.08;63.23;97753.92;217521;1260;139491;-72
2024/03/28 17:41:50;;;;;;;1.40;1.30;;;;;;;10.84;63.40;97760.19;218294;1260;139291;-72
2024/03/28 17:46:53;;;;;;;0.80;0.80;;;;;;;10.65;63.82;97766.22;217271;1262;140114;-72
2024/03/28 17:51:55;;;;;;;2.00;1.70;;;;;;;10.46;63.98;97770.94;217245;1257;140859;-75
2024/03/28 17:56:58;;;;;;;1.60;1.50;;;;;;;10.28;64.55;97773.83;217677;1260;141131;-73
2024/03/28 18:02:02;;;;;;;2.60;1.30;;;;;;;10.09;64.75;97774.86;217149;1262;140130;-72
2024/03/28 18:07:05;;;;;;;2.00;1.00;;;;;;;9.82;64.58;97775.23;217379;1257;140063;-72
2024/03/28 18:12:08;;;;;;;3.30;2.10;;;;;;;9.43;64.85;97779.20;217457;1257;140024;-72
2024/03/28 18:17:11;;;;;;;4.00;2.80;;;;;;;9.10;65.52;97793.55;217404;1261;140726;-72
2024/03/28 18:22:16;;;;;;;1.90;1.50;;;;;;;8.75;65.48;97803.03;218137;1257;139916;-71
2024/03/28 18:27:19;;;;;;;7.60;3.60;;;;;;;8.42;66.01;97804.05;217316;1260;141096;-71
2024/03/28 18:32:22;;;;;;;6.80;4.00;;;;;;;8.14;66.45;97804.79;217272;1260;139851;-70
2024/03/28 18:37:25;;;;;;;7.30;4.90;;;;;;;7.93;67.26;97805.15;217401;1257;139553;-71
2024/03/28 18:42:28;;;;;;;8.60;6.40;;;;;;;7.88;67.99;97809.66;217273;1261;139801;-71
2024/03/28 18:47:31;;;;;;;27.10;14.30;;;;;;;7.81;68.04;97817.34;217695;1256;139791;-73
2024/03/28 18:52:33;;;;;;;15.80;10.60;;;;;;;7.80;68.87;97817.66;217970;1257;141063;-72
2024/03/28 18:57:36;;;;;;;23.50;10.10;;;;;;;7.73;69.26;97820.56;217432;1261;139789;-72
2024/03/28 19:02:38;;;;;;;30.10;15.70;;;;;;;7.73;69.50;97817.27;217248;1257;140776;-71
2024/03/28 19:07:41;;;;;;;31.50;15.40;;;;;;;7.75;70.30;97818.65;217870;1260;140493;-72
2024/03/28 19:12:44;;;;;;;40.10;15.60;;;;;;;7.73;70.68;97823.00;218860;1257;140800;-71
2024/03/28 19:17:51;;;;;;;31.20;15.40;;;;;;;7.73;70.77;97828.35;218195;1260;140024;-71
2024/03/28 19:22:53;;;;;;;;;;;;;;;7.85;71.54;97833.86;218964;1260;141070;-71
2024/03/28 19:27:57;;;;;;;40.30;19.60;;;;;;;7.92;71.72;97836.30;217785;1257;125800;-71
2024/03/28 19:33:01;;;;;;;36.50;17.90;;;;;;;7.97;71.64;97837.67;217391;1260;140466;-72
2024/03/28 19:38:07;;;;;;;30.90;14.50;;;;;;;7.93;71.81;97840.45;217043;1262;140070;-72
2024/03/28 19:43:11;;;;;;;20.40;12.30;;;;;;;7.91;72.32;97846.98;217004;1262;141625;-71
2024/03/28 19:48:14;;;;;;;17.80;10.50;;;;;;;7.88;72.30;97845.90;217510;1262;140462;-71
2024/03/28 19:53:17;;;;;;;17.90;10.10;;;;;;;7.84;72.71;97849.81;217229;1261;140698;-71
2024/03/28 19:58:19;;;;;;;15.80;9.30;;;;;;;7.84;73.25;97857.45;217613;1262;139678;-72
2024/03/28 20:03:23;;;;;;;18.00;8.30;;;;;;;7.90;73.52;97865.11;217520;1257;139997;-71
2024/03/28 20:08:29;;;;;;;32.50;11.30;;;;;;;8.00;73.66;97869.20;217786;1260;139904;-72
2024/03/28 20:13:33;;;;;;;13.40;7.50;;;;;;;8.15;73.82;97880.43;217762;1260;140388;-72
2024/03/28 20:18:35;;;;;;;13.60;7.10;;;;;;;8.30;73.52;97890.10;217438;1260;140547;-72
2024/03/28 20:23:38;;;;;;;12.20;6.50;;;;;;;8.47;73.31;97903.79;217894;1257;139650;-72
2024/03/28 20:28:41;;;;;;;9.20;6.00;;;;;;;8.65;72.94;97906.06;218309;1260;140662;-72
2024/03/28 20:33:44;;;;;;;7.60;5.10;;;;;;;8.84;72.49;97903.45;218823;1257;139566;-72
2024/03/28 20:38:46;;;;;;;13.60;5.60;;;;;;;9.04;71.52;97917.66;217507;1261;139297;-72
2024/03/28 20:43:50;;;;;;;6.40;4.20;;;;;;;9.22;70.92;97920.73;217481;1258;140438;-72
2024/03/28 20:48:53;;;;;;;10.10;5.50;;;;;;;9.35;70.41;97915.35;218488;1260;140477;-71
2024/03/28 20:53:57;;;;;;;7.30;4.70;;;;;;;9.46;69.84;97918.71;218394;1257;140196;-71
2024/03/28 20:59:00;;;;;;;9.00;4.20;;;;;;;9.54;69.35;97931.27;219102;1260;140984;-73
2024/03/28 21:04:06;;;;;;;7.00;4.20;;;;;;;9.63;69.01;97939.77;218092;1260;150777;-72
2024/03/28 21:14:30;;;;;;;7.10;4.50;;;;;;;9.73;68.14;97951.44;217608;1260;142621;-71
2024/03/28 21:19:33;;;;;;;5.90;4.20;;;;;;;9.76;67.89;97953.94;218085;1257;139551;-73
2024/03/28 21:24:37;;;;;;;5.00;3.10;;;;;;;9.80;67.63;97956.34;217377;1260;141808;-71
2024/03/28 21:29:41;;;;;;;4.00;3.20;;;;;;;9.83;67.40;97953.83;218198;1256;139576;-73
2024/03/28 21:34:44;;;;;;;4.90;2.60;;;;;;;9.85;67.26;97961.70;217794;1260;140157;-73
2024/03/28 21:39:47;;;;;;;4.40;2.50;;;;;;;9.86;66.88;97960.58;217560;1260;141718;-72
2024/03/28 21:44:52;;;;;;;4.40;2.50;;;;;;;9.88;66.66;97959.35;217338;1262;140708;-72
2024/03/28 21:49:56;;;;;;;6.80;2.70;;;;;;;9.89;66.55;97954.66;217439;1257;139687;-74
2024/03/28 21:55:00;;;;;;;2.40;2.20;;;;;;;9.91;66.27;97958.11;217607;1260;139571;-70
2024/03/28 22:00:03;;;;;;;5.40;2.30;;;;;;;9.93;66.30;97958.80;217816;1262;140220;-71
2024/03/28 22:05:08;;;;;;;4.10;2.40;;;;;;;9.94;66.22;97965.66;217660;1260;140553;-72
2024/03/28 22:10:11;;;;;;;2.70;2.30;;;;;;;9.95;66.17;97966.40;217569;1257;140496;-70
2024/03/28 22:15:13;;;;;;;5.20;2.50;;;;;;;9.95;65.94;97978.86;217796;1263;151317;-71
2024/03/28 22:20:16;;;;;;;2.70;1.70;;;;;;;9.96;65.73;97991.47;217429;1257;140683;-70
2024/03/28 22:25:22;;;;;;;3.10;2.90;;;;;;;9.96;65.68;98007.55;217513;1258;140193;-71
2024/03/28 22:30:25;;;;;;;4.20;1.60;;;;;;;9.97;65.58;98012.28;217519;1257;140911;-71
2024/03/28 22:35:29;;;;;;;4.50;1.60;;;;;;;10.00;65.21;98018.08;217567;1256;140667;-69
2024/03/28 22:40:32;;;;;;;2.00;1.50;;;;;;;10.01;65.20;98034.26;217327;1261;140546;-72
2024/03/28 22:45:36;;;;;;;2.40;1.70;;;;;;;10.03;64.97;98045.75;217254;1260;371225;-71
2024/03/28 22:50:38;;;;;;;2.00;1.20;;;;;;;10.01;65.00;98058.74;218812;1260;140538;-71
2024/03/28 22:55:41;;;;;;;1.40;1.20;;;;;;;10.01;64.87;98073.17;217315;1258;140737;-72
2024/03/28 23:00:43;;;;;;;2.60;1.30;;;;;;;10.01;64.71;98089.04;217408;1261;152380;-71
2024/03/28 23:05:47;;;;;;;2.70;1.70;;;;;;;10.00;64.67;98101.70;217422;1260;141042;-71
2024/03/28 23:10:52;;;;;;;1.80;1.60;;;;;;;10.00;64.76;98112.09;217483;1260;139526;-71
2024/03/28 23:15:55;;;;;;;1.20;1.10;;;;;;;9.99;64.65;98125.62;217493;1260;141249;-71
2024/03/28 23:20:59;;;;;;;5.00;1.80;;;;;;;9.97;64.68;98139.46;217448;1258;139732;-70
2024/03/28 23:26:03;;;;;;;3.10;1.60;;;;;;;9.93;64.83;98147.13;218078;1257;235269;-71